Airfield :
LOGIN :

Register | Disclaimer

   EN    FR    IT 

 










Legend :    VFR   Marginal VFR   IFR   Intensive IFR   Very Intensive IFR
Visi :
Ceiling :
>= 8 km
>= 3000ft
5 to 8 km
1000 to 3000 ft
1500m to 5 km
500 to 1000 ft
800 to 1500m
200 to 500 ft
< 800m
< 200 ft
Symbols :   Thunderstorms  Fog  Heavy snow  Heavy precipitations  Wind > 20 kt
SIGMETs :     Misc.  Thunderstorms  Icing  Turbulence  Mountain Waves  Volcanic Ashes






- Airport Elevation : 1161 ft
- IATA code : RJL


LELO - Logroño-Agoncillo

CURRENT METAR :
  • 271000Z 27012KT 9999 FEW030 12/08 Q1029

EXPIRED METARs :
  • 270930Z 27013KT 9999 FEW030 12/07 Q1029
  • 270900Z 27009KT 250V320 9999 FEW030 11/07 Q1029
  • 270830Z 27008KT 9999 FEW030 09/06 Q1029
  • 270800Z 26008KT 9999 FEW030 08/06 Q1029
  • 270730Z 26008KT 9000 FEW030 06/05 Q1029

TAF TAF LELO
Valid from the 27 at 09:00 until the 28 at 09:00 UTC


270800Z 2709/2809 30008KT 9999 FEW030 TX15/2715Z TN05/2806Z



MET'MAP, your aeronautical weather chart ! - Copyright ORBIFLY December 2007 - Disclaimer

ORBIFLY MET'MAP TEAM :

Programming & Development : Alexandra Zaïnal
Concept & original design : Baudouin d'Aumeries
Assistance for programming : Marc-Olivier Méhu
Technical & hardware support : Manuel Goepfert

Contact : metmap@orbifly.com




SOURCES & CREDITS :

   NOAA